createdAt,value
2017-07-04T00:00:21.897Z,45.28
2017-07-04T00:01:30.882Z,45.48
2017-07-04T00:02:40.148Z,45.09
2017-07-04T00:03:49.105Z,45.38
2017-07-04T00:04:58.068Z,45.57
2017-07-04T00:06:07.710Z,45.18
2017-07-04T00:07:17.283Z,45.18
2017-07-04T00:08:25.930Z,45.28
2017-07-04T00:09:35.200Z,45.28
2017-07-04T00:10:44.147Z,45.38
2017-07-04T00:11:53.271Z,45.09
2017-07-04T00:13:02.283Z,45.57
2017-07-04T00:14:11.865Z,45.38
2017-07-04T00:15:20.817Z,45.48
2017-07-04T00:16:29.773Z,45.28
2017-07-04T00:17:38.456Z,45.18
2017-07-04T00:18:47.720Z,45.28
2017-07-04T00:19:56.992Z,45.57
2017-07-04T00:21:06.564Z,45.48
2017-07-04T00:22:15.207Z,45.09
2017-07-04T00:23:24.330Z,45.18
2017-07-04T00:24:32.964Z,45.28
2017-07-04T00:25:42.539Z,45.09
2017-07-04T00:26:51.181Z,45
2017-07-04T00:28:00.444Z,44.7
2017-07-04T00:29:09.092Z,44.9
2017-07-04T00:30:18.057Z,45
2017-07-04T00:31:26.999Z,45
2017-07-04T00:32:35.963Z,45
2017-07-04T00:33:45.550Z,45
2017-07-04T00:34:54.656Z,45
2017-07-04T00:36:03.622Z,44.9
2017-07-04T00:37:12.903Z,45
2017-07-04T00:38:21.875Z,44.42
2017-07-04T00:39:31.471Z,44.42
2017-07-04T00:40:40.569Z,44.32
2017-07-04T00:41:49.526Z,44.63
2017-07-04T00:42:58.163Z,44.7
2017-07-04T00:44:06.853Z,44.63
2017-07-04T00:45:15.801Z,44.82
2017-07-04T00:46:24.906Z,44.53
2017-07-04T00:47:33.866Z,44.24
2017-07-04T00:48:43.462Z,44.43
2017-07-04T00:49:52.731Z,44.34
2017-07-04T00:51:01.683Z,44.34
2017-07-04T00:52:10.937Z,44.34
2017-07-04T00:53:20.192Z,44.34
2017-07-04T00:54:29.463Z,44.24
2017-07-04T00:55:38.735Z,44.34
2017-07-04T00:56:48.011Z,44.34
2017-07-04T00:57:57.277Z,44.24
2017-07-04T00:59:05.910Z,44.15
2017-07-04T01:00:14.854Z,44.24
2017-07-04T01:01:23.809Z,44.34
2017-07-04T01:02:33.398Z,44.92
2017-07-04T01:03:42.508Z,44.73
2017-07-04T01:04:51.464Z,44.73
2017-07-04T01:06:00.107Z,44.73
2017-07-04T01:07:09.682Z,44.73
2017-07-04T01:08:18.313Z,44.34
2017-07-04T01:09:27.051Z,45.01
2017-07-04T01:10:36.009Z,45.01
2017-07-04T01:11:45.292Z,45.28
2017-07-04T01:12:55.203Z,45.38
2017-07-04T01:14:05.100Z,45.28
2017-07-04T01:15:14.057Z,45.28
2017-07-04T01:16:22.696Z,45.48
2017-07-04T01:17:31.957Z,45.09
2017-07-04T01:18:40.937Z,45.28
2017-07-04T01:19:49.889Z,45.48
2017-07-04T01:20:59.311Z,45.28
2017-07-04T01:22:08.608Z,45.28
2017-07-04T01:23:17.251Z,45.28
2017-07-04T01:24:26.208Z,45.38
2017-07-04T01:25:35.191Z,45.28
2017-07-04T01:26:44.139Z,45.38
2017-07-04T01:27:53.408Z,45.38
2017-07-04T01:29:02.355Z,45.09
2017-07-04T01:30:11.617Z,45.48
2017-07-04T01:31:20.569Z,45.67
2017-07-04T01:32:29.630Z,45.09
2017-07-04T01:33:38.288Z,45.18
2017-07-04T01:34:47.565Z,45
2017-07-04T01:35:56.519Z,45.18
2017-07-04T01:37:05.469Z,45.38
2017-07-04T01:38:14.464Z,45.09
2017-07-04T01:39:23.410Z,45.28
2017-07-04T01:40:32.359Z,45.18
2017-07-04T01:41:40.995Z,45.48
2017-07-04T01:42:50.267Z,45.38
2017-07-04T01:43:59.328Z,45.48
2017-07-04T01:45:07.976Z,45.09
2017-07-04T01:46:17.252Z,45.57
2017-07-04T01:47:26.524Z,45.86
2017-07-04T01:48:35.481Z,45.96
2017-07-04T01:49:44.586Z,45.57
2017-07-04T01:50:53.542Z,45.57
2017-07-04T01:52:02.812Z,45.57
2017-07-04T01:53:11.460Z,45.67
2017-07-04T01:54:21.051Z,45.57
2017-07-04T01:55:30.010Z,45.38
2017-07-04T01:56:38.972Z,45.75
2017-07-04T01:57:48.563Z,45.76
2017-07-04T01:58:57.526Z,46.13
2017-07-04T02:00:06.185Z,46.13
2017-07-04T02:01:15.160Z,46.03
2017-07-04T02:02:24.125Z,45.94
2017-07-04T02:03:33.081Z,45.94
2017-07-04T02:04:42.363Z,46.13
2017-07-04T02:05:51.333Z,46.03
2017-07-04T02:07:00.326Z,46.03
2017-07-04T02:08:09.291Z,45.75
2017-07-04T02:09:18.243Z,46.03
2017-07-04T02:10:27.202Z,45.84
2017-07-04T02:11:36.159Z,46.03
2017-07-04T02:12:44.899Z,45.36
2017-07-04T02:13:53.593Z,45.45
2017-07-04T02:15:03.478Z,45.48
2017-07-04T02:16:12.423Z,45.48
2017-07-04T02:17:21.373Z,45.76
2017-07-04T02:18:30.748Z,45.86
2017-07-04T02:19:39.714Z,45.76
2017-07-04T02:20:48.670Z,45.48
2017-07-04T02:21:57.624Z,45.38
2017-07-04T02:23:07.519Z,45.96
2017-07-04T02:24:16.898Z,45.76
2017-07-04T02:25:25.846Z,45.48
2017-07-04T02:26:35.434Z,45.76
2017-07-04T02:27:44.702Z,45.48
2017-07-04T02:28:53.358Z,46.15
2017-07-04T02:30:02.993Z,46.15
2017-07-04T02:31:12.259Z,45.94
2017-07-04T02:32:20.888Z,45.84
2017-07-04T02:33:29.839Z,45.94
2017-07-04T02:34:38.473Z,45.94
2017-07-04T02:35:47.259Z,46.13
2017-07-04T02:36:56.532Z,46.23
2017-07-04T02:38:05.805Z,46.23
2017-07-04T02:39:14.792Z,46.51
2017-07-04T02:40:24.681Z,46.51
2017-07-04T02:41:33.374Z,46.51
2017-07-04T02:42:42.015Z,46.33
2017-07-04T02:43:51.595Z,46.33
2017-07-04T02:45:01.174Z,46.33
2017-07-04T02:46:09.804Z,46.23
2017-07-04T02:47:18.438Z,46.23
2017-07-04T02:48:27.398Z,46.81
2017-07-04T02:49:36.661Z,46.61
2017-07-04T02:50:45.619Z,46.33
2017-07-04T02:51:54.884Z,46.42
2017-07-04T02:53:03.934Z,46.71
2017-07-04T02:54:12.896Z,46.71
2017-07-04T02:55:21.846Z,46.71
2017-07-04T02:56:31.103Z,46.61
2017-07-04T02:57:40.046Z,46.61
2017-07-04T02:58:49.150Z,47.38
2017-07-04T02:59:58.740Z,47.29
2017-07-04T03:01:07.996Z,47.29
2017-07-04T03:02:17.299Z,47.29
2017-07-04T03:03:26.259Z,47.19
2017-07-04T03:04:35.930Z,47.29
2017-07-04T03:05:44.571Z,47.38
2017-07-04T03:06:53.517Z,47.29
2017-07-04T03:08:02.796Z,46.71
2017-07-04T03:09:11.753Z,46.51
2017-07-04T03:10:21.487Z,46.61
2017-07-04T03:11:30.437Z,46.81
2017-07-04T03:12:39.720Z,46.42
2017-07-04T03:13:48.358Z,46.71
2017-07-04T03:14:57.312Z,46.51
2017-07-04T03:16:06.372Z,46.51
2017-07-04T03:17:15.633Z,46.33
2017-07-04T03:18:24.921Z,46.33
2017-07-04T03:19:33.564Z,46.42
2017-07-04T03:20:42.522Z,46.33
2017-07-04T03:21:51.327Z,46.33
2017-07-04T03:22:59.973Z,46.51
2017-07-04T03:24:09.551Z,46.51
2017-07-04T03:25:18.509Z,46.54
2017-07-04T03:26:28.392Z,46.23
2017-07-04T03:27:38.281Z,46.42
2017-07-04T03:28:47.539Z,46.13
2017-07-04T03:29:56.176Z,46.33
2017-07-04T03:31:04.810Z,46.61
2017-07-04T03:32:13.759Z,46.23
2017-07-04T03:33:22.545Z,46.42
2017-07-04T03:34:31.498Z,46.71
2017-07-04T03:35:40.449Z,46.71
2017-07-04T03:36:49.722Z,46.42
2017-07-04T03:38:24.367Z,46.81
2017-07-04T03:39:33.628Z,47.19
2017-07-04T03:40:42.266Z,47.29
2017-07-04T03:41:51.539Z,47.29
2017-07-04T03:43:00.800Z,47.09
2017-07-04T03:44:09.769Z,47.29
2017-07-04T03:45:18.729Z,47.19
2017-07-04T03:46:27.678Z,47.09
2017-07-04T03:47:36.941Z,47.19
2017-07-04T03:48:45.577Z,47.38
2017-07-04T03:49:54.536Z,47.09
2017-07-04T03:51:03.186Z,47.58
2017-07-04T03:52:12.141Z,47.38
2017-07-04T03:53:20.776Z,47.75
2017-07-04T03:54:29.733Z,47.55
2017-07-04T03:55:38.683Z,47.65
2017-07-04T03:56:47.959Z,47.65
2017-07-04T03:57:57.219Z,47.75
2017-07-04T03:59:05.862Z,47.65
2017-07-04T04:00:14.831Z,47.36
2017-07-04T04:01:23.486Z,47.45
2017-07-04T04:02:32.750Z,47.29
2017-07-04T04:03:41.402Z,47.48
2017-07-04T04:04:50.353Z,47.29
2017-07-04T04:05:59.924Z,47.38
2017-07-04T04:07:08.869Z,47.19
2017-07-04T04:08:17.504Z,47.29
2017-07-04T04:09:26.158Z,47.29
2017-07-04T04:10:36.062Z,47.19
2017-07-04T04:11:45.045Z,47.38
2017-07-04T04:12:54.318Z,47.29
2017-07-04T04:14:03.996Z,47.29
2017-07-04T04:15:13.172Z,47.19
2017-07-04T04:16:22.453Z,47.38
2017-07-04T04:17:31.729Z,46.81
2017-07-04T04:18:40.377Z,46.61
2017-07-04T04:19:49.324Z,46.9
2017-07-04T04:20:58.596Z,46.61
2017-07-04T04:22:07.245Z,46.61
2017-07-04T04:23:16.503Z,46.54
2017-07-04T04:24:25.465Z,46.64
2017-07-04T04:25:34.739Z,46.54
2017-07-04T04:26:43.687Z,46.64
2017-07-04T04:27:52.950Z,46.73
2017-07-04T04:29:02.528Z,46.83
2017-07-04T04:30:12.111Z,46.44
2017-07-04T04:31:21.063Z,46.83
2017-07-04T04:32:30.970Z,46.73
2017-07-04T04:33:40.863Z,46.73
2017-07-04T04:34:50.129Z,46.25
2017-07-04T04:35:59.389Z,46.54
2017-07-04T04:37:08.081Z,46.25
2017-07-04T04:38:17.036Z,46.44
2017-07-04T04:39:26.326Z,46.34
2017-07-04T04:40:35.613Z,46.44
2017-07-04T04:41:44.609Z,46.73
2017-07-04T04:42:53.883Z,46.73
2017-07-04T04:44:03.175Z,46.83
2017-07-04T04:45:12.443Z,46.64
2017-07-04T04:46:22.032Z,46.44
2017-07-04T04:47:30.664Z,46.64
2017-07-04T04:48:39.922Z,47.29
2017-07-04T04:49:48.556Z,47.22
2017-07-04T04:50:57.822Z,47.29
2017-07-04T04:52:06.766Z,47.22
2017-07-04T04:53:16.034Z,47.29
2017-07-04T04:54:24.694Z,47.29
2017-07-04T04:55:33.955Z,47.19
2017-07-04T04:56:42.907Z,47.19
2017-07-04T04:57:52.187Z,47.19
2017-07-04T04:59:00.833Z,47.29
2017-07-04T05:00:09.788Z,47.29
2017-07-04T05:01:19.368Z,47.38
2017-07-04T05:02:28.387Z,47.29
2017-07-04T05:03:37.025Z,47.48
2017-07-04T05:04:45.991Z,47.38
2017-07-04T05:05:54.950Z,47.48
2017-07-04T05:07:04.231Z,47.58
2017-07-04T05:08:12.869Z,47.67
2017-07-04T05:09:22.463Z,47.58
2017-07-04T05:10:31.427Z,47.77
2017-07-04T05:11:40.696Z,47.29
2017-07-04T05:12:49.976Z,47.48
2017-07-04T05:13:58.941Z,47.48
2017-07-04T05:15:08.203Z,47.38
2017-07-04T05:16:17.788Z,47
2017-07-04T05:17:27.364Z,47
2017-07-04T05:18:36.314Z,47.09
2017-07-04T05:19:45.269Z,47.38
2017-07-04T05:20:54.217Z,47.29
2017-07-04T05:22:03.176Z,47.29
2017-07-04T05:23:12.450Z,47.5
2017-07-04T05:24:21.404Z,47.58
2017-07-04T05:25:30.382Z,47.38
2017-07-04T05:26:39.030Z,47.29
2017-07-04T05:27:48.619Z,47.48
2017-07-04T05:28:58.206Z,47.29
2017-07-04T05:30:07.172Z,47.48
2017-07-04T05:31:16.122Z,47.48
2017-07-04T05:32:25.389Z,47.77
2017-07-04T05:33:34.973Z,47.87
2017-07-04T05:34:44.254Z,47.58
2017-07-04T05:35:53.210Z,47.77
2017-07-04T05:37:02.790Z,47.58
2017-07-04T05:38:12.366Z,47.87
2017-07-04T05:39:21.646Z,48.44
2017-07-04T05:40:30.919Z,48.35
2017-07-04T05:41:40.180Z,48.35
2017-07-04T05:42:49.133Z,47.87
2017-07-04T05:43:57.777Z,47.77
2017-07-04T05:45:06.725Z,47.67
2017-07-04T05:46:16.304Z,47.12
2017-07-04T05:47:25.576Z,47.31
2017-07-04T05:48:34.215Z,47.22
2017-07-04T05:49:43.171Z,46.92
2017-07-04T05:50:52.121Z,46.66
2017-07-04T05:52:00.758Z,46.56
2017-07-04T05:53:09.407Z,46.56
2017-07-04T05:54:18.054Z,46.37
2017-07-04T05:55:27.615Z,46.37
2017-07-04T05:56:36.248Z,45.89
2017-07-04T05:57:45.213Z,46.08
2017-07-04T05:58:55.106Z,45.79
2017-07-04T06:00:03.738Z,45.52
2017-07-04T06:01:12.394Z,45.62
2017-07-04T06:02:21.348Z,46
2017-07-04T06:03:30.307Z,45.81
2017-07-04T06:04:39.582Z,45.23
2017-07-04T06:05:48.856Z,45.23
2017-07-04T06:06:58.129Z,45.42
2017-07-04T06:08:07.416Z,45.33
2017-07-04T06:09:16.046Z,45.06
2017-07-04T06:10:25.312Z,45.25
2017-07-04T06:11:33.946Z,45.06
2017-07-04T06:12:42.895Z,44.96
2017-07-04T06:13:51.853Z,44.87
2017-07-04T06:15:01.125Z,44.67
2017-07-04T06:16:09.768Z,44.77
2017-07-04T06:17:18.735Z,44.79
2017-07-04T06:18:27.382Z,45.08
2017-07-04T06:19:36.970Z,44.79
2017-07-04T06:20:46.554Z,44.5
2017-07-04T06:21:56.142Z,44.31
2017-07-04T06:23:04.791Z,44.21
2017-07-04T06:24:13.756Z,44.12
2017-07-04T06:25:22.731Z,44.12
2017-07-04T06:26:32.011Z,43.95
2017-07-04T06:27:41.297Z,44.33
2017-07-04T06:28:50.552Z,44.33
2017-07-04T06:29:59.206Z,44.23
2017-07-04T06:31:08.158Z,44.04
2017-07-04T06:32:17.114Z,44.23
2017-07-04T06:33:26.061Z,43.85
2017-07-04T06:34:35.021Z,43.68
2017-07-04T06:35:44.287Z,43.19
2017-07-04T06:36:53.548Z,43.38
2017-07-04T06:38:02.504Z,43.19
2017-07-04T06:39:11.147Z,43.09
2017-07-04T06:40:21.089Z,43.12
2017-07-04T06:41:30.037Z,42.92
2017-07-04T06:42:39.332Z,42.63
2017-07-04T06:43:47.990Z,42.34
2017-07-04T06:44:56.947Z,42.24
2017-07-04T06:46:06.258Z,42.55
2017-07-04T06:47:15.218Z,42.46
2017-07-04T06:48:24.166Z,42.07
2017-07-04T06:49:33.192Z,42.36
2017-07-04T06:50:42.769Z,42.17
2017-07-04T06:51:52.064Z,42.17
2017-07-04T06:53:01.024Z,42.36
2017-07-04T06:54:09.974Z,42.36
2017-07-04T06:55:18.992Z,42.55
2017-07-04T06:56:27.946Z,42.75
2017-07-04T06:57:37.209Z,42.55
2017-07-04T06:58:45.848Z,42.85
2017-07-04T06:59:55.113Z,42.55
2017-07-04T07:01:04.384Z,42.55
2017-07-04T07:02:13.024Z,42.55
2017-07-04T07:03:21.663Z,42.55
2017-07-04T07:04:31.244Z,42.85
2017-07-04T07:05:39.912Z,42.85
2017-07-04T07:06:48.550Z,42.85
2017-07-04T07:07:58.127Z,42.94
2017-07-04T07:09:07.443Z,42.94
2017-07-04T07:10:16.145Z,42.94
2017-07-04T07:11:25.424Z,43.13
2017-07-04T07:12:34.384Z,42.85
2017-07-04T07:13:43.045Z,42.75
2017-07-04T07:14:52.313Z,42.46
2017-07-04T07:16:01.583Z,41.99
2017-07-04T07:17:10.541Z,41.51
2017-07-04T07:18:19.807Z,41.05
2017-07-04T07:19:29.082Z,40.67
2017-07-04T07:20:38.040Z,39.82
2017-07-04T07:21:46.999Z,39.43
2017-07-04T07:22:55.956Z,38.57
2017-07-04T07:24:04.589Z,38.31
2017-07-04T07:25:14.493Z,38.13
2017-07-04T07:26:23.133Z,37.27
2017-07-04T07:27:32.083Z,36.98
2017-07-04T07:28:41.351Z,36.51
2017-07-04T07:29:49.994Z,35.85
2017-07-04T07:30:59.594Z,35.47
2017-07-04T07:32:08.556Z,34.81
2017-07-04T07:33:18.153Z,34.44
2017-07-04T07:34:27.446Z,34.53
2017-07-04T07:35:36.407Z,33.87
2017-07-04T07:36:45.376Z,33.89
2017-07-04T07:37:54.675Z,33.22
2017-07-04T07:39:03.637Z,32.84
2017-07-04T07:40:12.300Z,32.55
2017-07-04T07:41:21.257Z,33.04
2017-07-04T07:42:29.914Z,33.23
2017-07-04T07:43:38.560Z,33.14
2017-07-04T07:44:47.517Z,32.55
2017-07-04T07:45:56.474Z,32.07
2017-07-04T07:47:05.439Z,31.8
2017-07-04T07:48:14.405Z,31.71
2017-07-04T07:49:23.360Z,31.34
2017-07-04T07:50:32.643Z,30.94
2017-07-04T07:51:41.280Z,30.67
2017-07-04T07:52:50.553Z,30.68
2017-07-04T07:53:59.517Z,30.57
2017-07-04T07:55:08.167Z,30.49
2017-07-04T07:56:17.442Z,30.49
2017-07-04T07:57:26.715Z,30.5
2017-07-04T07:58:35.381Z,31.27
2017-07-04T07:59:44.349Z,32.14
2017-07-04T08:00:53.624Z,33.29
2017-07-04T08:02:02.904Z,33.67
2017-07-04T08:03:12.183Z,34.62
2017-07-04T08:04:21.476Z,34.8
2017-07-04T08:05:30.141Z,34.68
2017-07-04T08:06:38.797Z,34.29
2017-07-04T08:07:47.773Z,34.5
2017-07-04T08:08:57.682Z,34.13
2017-07-04T08:10:06.972Z,33.07
2017-07-04T08:11:15.929Z,32.6
2017-07-04T08:12:24.901Z,32.22
2017-07-04T08:13:34.190Z,32.32
2017-07-04T08:14:43.471Z,32.81
2017-07-04T08:15:52.133Z,33.5
2017-07-04T08:17:00.791Z,34.05
2017-07-04T08:18:09.764Z,34.62
2017-07-04T08:19:18.761Z,35.58
2017-07-04T08:20:28.048Z,35.85
2017-07-04T08:21:36.700Z,36.82
2017-07-04T08:22:45.354Z,36.9
2017-07-04T08:23:54.002Z,37.37
2017-07-04T08:25:02.960Z,37.95
2017-07-04T08:26:12.579Z,37.83
2017-07-04T08:27:21.862Z,37.35
2017-07-04T08:28:31.140Z,36.58
2017-07-04T08:29:40.461Z,35.55
2017-07-04T08:30:49.159Z,34.7
2017-07-04T08:31:58.497Z,33.94
2017-07-04T08:33:08.142Z,32.97
2017-07-04T08:34:16.842Z,32.6
2017-07-04T08:35:25.808Z,32.04
2017-07-04T08:36:34.781Z,31.67
2017-07-04T08:37:44.072Z,30.99
2017-07-04T08:38:53.046Z,30.52
2017-07-04T08:40:01.760Z,30.42
2017-07-04T08:41:10.741Z,30.33
2017-07-04T08:42:19.728Z,30.05
2017-07-04T08:43:29.000Z,30.35
2017-07-04T08:44:37.661Z,30.65
2017-07-04T08:45:46.333Z,31.12
2017-07-04T08:46:54.989Z,31.89
2017-07-04T08:48:03.637Z,32.17
2017-07-04T08:49:12.938Z,32.64
2017-07-04T08:50:22.546Z,33.02
2017-07-04T08:51:31.825Z,33.7
2017-07-04T08:52:40.796Z,34.08
2017-07-04T08:53:49.455Z,34.84
2017-07-04T08:54:58.421Z,34.75
2017-07-04T08:56:07.391Z,35.13
2017-07-04T08:57:16.667Z,35.4
2017-07-04T08:58:25.323Z,35.97
2017-07-04T08:59:34.293Z,36.36
2017-07-04T09:00:43.894Z,36.85
2017-07-04T09:01:52.546Z,37.12
2017-07-04T09:03:02.139Z,37.22
2017-07-04T09:04:11.417Z,37.5
2017-07-04T09:05:20.067Z,37.89
2017-07-04T09:06:29.027Z,37.96
2017-07-04T09:07:37.679Z,38.06
2017-07-04T09:08:46.348Z,38.53
2017-07-04T09:09:55.320Z,38.73
2017-07-04T09:11:04.288Z,38.82
2017-07-04T09:12:13.565Z,39.2
2017-07-04T09:13:22.537Z,39.88
2017-07-04T09:14:31.201Z,39.49
2017-07-04T09:15:39.877Z,39.96
2017-07-04T09:16:49.858Z,40.16
2017-07-04T09:17:58.828Z,40.42
2017-07-04T09:19:07.804Z,40.72
2017-07-04T09:20:17.076Z,40.91
2017-07-04T09:21:26.359Z,41.19
2017-07-04T09:22:35.326Z,41.38
2017-07-04T09:23:44.005Z,41.57
2017-07-04T09:24:52.657Z,41.65
2017-07-04T09:26:01.615Z,42.14
2017-07-04T09:27:10.272Z,42.33
2017-07-04T09:28:19.241Z,42.43
2017-07-04T09:29:28.215Z,42.5
2017-07-04T09:30:37.181Z,42.31
2017-07-04T09:31:46.458Z,42.41
2017-07-04T09:32:55.741Z,42.7
2017-07-04T09:34:04.709Z,42.31
2017-07-04T09:35:13.367Z,42.6
2017-07-04T09:36:22.016Z,42.68
2017-07-04T09:37:30.670Z,42.78
2017-07-04T09:38:39.642Z,42.78
2017-07-04T09:39:48.291Z,42.68
2017-07-04T09:40:56.943Z,42.87
2017-07-04T09:42:05.909Z,43.16
2017-07-04T09:43:14.876Z,43.16
2017-07-04T09:44:23.864Z,43.16
2017-07-04T09:45:32.539Z,43.05
2017-07-04T09:46:41.833Z,43.05
2017-07-04T09:47:50.493Z,43.15
2017-07-04T09:48:59.782Z,43.15
2017-07-04T09:50:08.770Z,43.15
2017-07-04T09:51:17.740Z,43.44
2017-07-04T09:52:26.872Z,43.44
2017-07-04T09:53:35.836Z,43.34
2017-07-04T09:54:44.809Z,43.05
2017-07-04T09:55:53.460Z,43.15
2017-07-04T09:57:02.107Z,43.05
2017-07-04T09:58:10.751Z,43.15
2017-07-04T09:59:20.035Z,43.24
2017-07-04T10:00:29.060Z,43.24
2017-07-04T10:01:38.027Z,43.15
2017-07-04T10:02:47.301Z,43.44
2017-07-04T10:03:56.274Z,43.71
2017-07-04T10:05:04.928Z,44.09
2017-07-04T10:06:13.896Z,44
2017-07-04T10:07:23.175Z,44
2017-07-04T10:08:32.451Z,43.8
2017-07-04T10:09:41.437Z,43.9
2017-07-04T10:10:50.401Z,43.8
2017-07-04T10:11:59.702Z,43.9
2017-07-04T10:13:08.361Z,43.8
2017-07-04T10:14:17.346Z,43.8
2017-07-04T10:15:26.314Z,44.48
2017-07-04T10:16:34.983Z,44.38
2017-07-04T10:17:44.582Z,44.37
2017-07-04T10:18:53.226Z,44.37
2017-07-04T10:20:02.193Z,44.37
2017-07-04T10:21:11.522Z,44.37
2017-07-04T10:22:20.178Z,44.27
2017-07-04T10:23:29.471Z,44.27
2017-07-04T10:24:38.747Z,44.37
2017-07-04T10:25:47.473Z,44.27
2017-07-04T10:26:56.465Z,44.37
2017-07-04T10:28:05.764Z,44.37
2017-07-04T10:29:15.040Z,44.37
2017-07-04T10:30:23.999Z,44.07
2017-07-04T10:31:33.285Z,43.88
2017-07-04T10:32:42.270Z,43.88
2017-07-04T10:33:50.984Z,43.88
2017-07-04T10:34:59.703Z,43.88
2017-07-04T10:36:08.989Z,44.17
2017-07-04T10:37:17.649Z,43.78
2017-07-04T10:38:26.943Z,44.37
2017-07-04T10:39:35.593Z,44.37
2017-07-04T10:40:44.247Z,44.37
2017-07-04T10:41:52.919Z,44.17
2017-07-04T10:43:02.195Z,44.15
2017-07-04T10:44:11.487Z,43.95
2017-07-04T10:45:20.129Z,44.05
2017-07-04T10:46:29.099Z,44.05
2017-07-04T10:47:38.062Z,44.34
2017-07-04T10:48:47.054Z,44.34
2017-07-04T10:49:56.331Z,44.34
2017-07-04T10:51:05.609Z,44.34
2017-07-04T10:52:15.202Z,44.44
2017-07-04T10:53:24.196Z,44.54
2017-07-04T10:54:33.174Z,44.44
2017-07-04T10:55:41.831Z,44.64
2017-07-04T10:56:50.788Z,44.64
2017-07-04T10:57:59.430Z,44.54
2017-07-04T10:59:08.410Z,44.44
2017-07-04T11:00:17.687Z,44.34
2017-07-04T11:01:26.962Z,44.24
2017-07-04T11:02:36.267Z,44.44
2017-07-04T11:03:45.564Z,44.44
2017-07-04T11:04:54.846Z,44.44
2017-07-04T11:06:05.056Z,44.34
2017-07-04T11:07:13.717Z,44.34
2017-07-04T11:08:22.361Z,44.34
2017-07-04T11:09:31.023Z,44.24
2017-07-04T11:10:39.668Z,44.24
2017-07-04T11:11:48.652Z,44.13
2017-07-04T11:12:57.303Z,44.54
2017-07-04T11:14:06.275Z,44.23
2017-07-04T11:15:15.558Z,44.24
2017-07-04T11:16:25.459Z,44.32
2017-07-04T11:17:34.420Z,44.34
2017-07-04T11:18:43.072Z,44.24
2017-07-04T11:19:51.790Z,44.42
2017-07-04T11:21:01.061Z,44.42
2017-07-04T11:22:10.029Z,44.32
2017-07-04T11:23:18.705Z,44.44
2017-07-04T11:24:27.357Z,44.34
2017-07-04T11:25:36.389Z,44.44
2017-07-04T11:26:45.674Z,44.44
2017-07-04T11:27:55.280Z,44.32
2017-07-04T11:29:04.262Z,44.34
2017-07-04T11:30:13.558Z,44.42
2017-07-04T11:31:23.152Z,44.24
2017-07-04T11:32:32.143Z,44.42
2017-07-04T11:33:40.796Z,44.32
2017-07-04T11:34:50.074Z,44.51
2017-07-04T11:35:59.038Z,44.61
2017-07-04T11:37:07.999Z,44.42
2017-07-04T11:38:16.662Z,44.32
2017-07-04T11:39:26.257Z,44.15
2017-07-04T11:40:35.536Z,44.32
2017-07-04T11:41:44.829Z,44.32
2017-07-04T11:42:53.482Z,44.32
2017-07-04T11:44:02.765Z,44.51
2017-07-04T11:45:11.418Z,44.42
2017-07-04T11:46:20.690Z,44.42
2017-07-04T11:47:30.285Z,44.23
2017-07-04T11:48:39.569Z,44.42
2017-07-04T11:49:48.862Z,44.42
2017-07-04T11:50:58.152Z,44.42
2017-07-04T11:52:07.118Z,44.32
2017-07-04T11:53:16.397Z,44.32
2017-07-04T11:54:25.062Z,44.32
2017-07-04T11:55:34.015Z,44.32
2017-07-04T11:56:42.662Z,44.23
2017-07-04T11:57:51.297Z,44.23
2017-07-04T11:59:00.890Z,44.32
2017-07-04T12:00:09.854Z,44.42
2017-07-04T12:01:19.462Z,44.32
2017-07-04T12:02:29.058Z,44.42
2017-07-04T12:03:38.021Z,44.42
2017-07-04T12:04:47.064Z,44.51
2017-07-04T12:05:56.025Z,44.32
2017-07-04T12:07:05.306Z,44.23
2017-07-04T12:08:14.274Z,44.23
2017-07-04T12:09:23.232Z,44.13
2017-07-04T12:10:32.195Z,44.23
2017-07-04T12:11:41.478Z,44.23
2017-07-04T12:12:50.125Z,44.61
2017-07-04T12:13:58.790Z,44.42
2017-07-04T12:15:07.753Z,44.23
2017-07-04T12:16:16.711Z,44.51
2017-07-04T12:17:25.667Z,44.51
2017-07-04T12:18:34.640Z,44.61
2017-07-04T12:19:43.927Z,44.42
2017-07-04T12:20:53.212Z,44.42
2017-07-04T12:22:02.806Z,44.42
2017-07-04T12:23:11.451Z,44.42
2017-07-04T12:24:20.124Z,44.23
2017-07-04T12:25:29.099Z,44.42
2017-07-04T12:26:38.738Z,44.51
2017-07-04T12:27:47.708Z,44.23
2017-07-04T12:28:56.678Z,44.23
2017-07-04T12:30:05.971Z,44.23
2017-07-04T12:31:14.624Z,44.23
2017-07-04T12:32:23.631Z,44.23
2017-07-04T12:33:32.282Z,44.32
2017-07-04T12:34:41.263Z,44.13
2017-07-04T12:35:50.546Z,44.42
2017-07-04T12:36:59.519Z,44.32
2017-07-04T12:38:08.482Z,44.42
2017-07-04T12:39:17.455Z,44.42
2017-07-04T12:40:26.421Z,44.23
2017-07-04T12:41:35.717Z,43.84
2017-07-04T12:42:45.311Z,44.23
2017-07-04T12:43:54.594Z,44.42
2017-07-04T12:45:03.550Z,44.23
2017-07-04T12:46:12.830Z,44.49
2017-07-04T12:47:21.482Z,44.3
2017-07-04T12:48:30.775Z,44.2
2017-07-04T12:49:40.055Z,44.42
2017-07-04T12:50:49.015Z,44.32
2017-07-04T12:51:57.993Z,44.71
2017-07-04T12:53:06.950Z,44.2
2017-07-04T12:54:16.222Z,44.42
2017-07-04T12:55:25.496Z,44.1
2017-07-04T12:56:34.158Z,44.23
2017-07-04T12:57:43.126Z,44.49
2017-07-04T12:58:52.398Z,44.23
2017-07-04T13:00:01.686Z,44.2
2017-07-04T13:01:10.973Z,44.61
2017-07-04T13:02:20.257Z,44.42
2017-07-04T13:03:29.236Z,44.32
2017-07-04T13:04:37.908Z,44.23
2017-07-04T13:05:47.488Z,44.42
2017-07-04T13:06:56.758Z,44.42
2017-07-04T13:08:06.029Z,44.51
2017-07-04T13:09:14.678Z,44.42
2017-07-04T13:10:23.941Z,44.32
2017-07-04T13:11:32.900Z,44.42
2017-07-04T13:12:41.860Z,44.42
2017-07-04T13:13:50.841Z,44.23
2017-07-04T13:14:59.861Z,44.32
2017-07-04T13:16:08.842Z,44.3
2017-07-04T13:17:17.489Z,44.42
2017-07-04T13:18:26.146Z,44.2
2017-07-04T13:19:35.437Z,44.49
2017-07-04T13:20:44.721Z,44.2
2017-07-04T13:21:53.685Z,44.49
2017-07-04T13:23:02.963Z,44.23
2017-07-04T13:24:11.943Z,44.4
2017-07-04T13:25:20.968Z,44.4
2017-07-04T13:26:30.559Z,44.3
2017-07-04T13:27:39.208Z,44.49
2017-07-04T13:28:48.500Z,44.2
2017-07-04T13:29:57.778Z,44.2
2017-07-04T13:31:06.422Z,44.01
2017-07-04T13:32:16.683Z,44.4
2017-07-04T13:33:25.960Z,44.1
2017-07-04T13:34:35.247Z,44.1
2017-07-04T13:35:44.250Z,44.2
2017-07-04T13:36:53.217Z,44.3
2017-07-04T13:38:02.839Z,44.3
2017-07-04T13:39:11.802Z,44.3
2017-07-04T13:40:21.099Z,44.2
2017-07-04T13:41:30.689Z,44.4
2017-07-04T13:42:39.646Z,44.3
2017-07-04T13:43:48.607Z,44.3
2017-07-04T13:44:57.573Z,44.3
2017-07-04T13:46:06.542Z,44.4
2017-07-04T13:47:16.141Z,44.2
2017-07-04T13:48:25.747Z,44.2
2017-07-04T13:49:34.394Z,44.3
2017-07-04T13:50:43.372Z,44.2
2017-07-04T13:51:52.667Z,44.4
2017-07-04T13:53:01.948Z,44.3
2017-07-04T13:54:11.230Z,44.4
2017-07-04T13:55:20.846Z,44.3
2017-07-04T13:56:30.139Z,44.1
2017-07-04T13:57:39.419Z,44.4
2017-07-04T13:58:48.401Z,44.2
2017-07-04T13:59:57.690Z,44.1
2017-07-04T14:01:06.966Z,44.2
2017-07-04T14:02:15.947Z,44.2
2017-07-04T14:03:25.245Z,44.3
2017-07-04T14:04:34.214Z,44.2
2017-07-04T14:05:43.813Z,44.3
2017-07-04T14:06:53.418Z,44.4
2017-07-04T14:08:02.713Z,44.1
2017-07-04T14:09:11.685Z,44.3
2017-07-04T14:10:20.360Z,44.2
2017-07-04T14:11:29.013Z,44.3
2017-07-04T14:12:38.614Z,44.2
2017-07-04T14:13:47.584Z,44.1
2017-07-04T14:14:56.552Z,44.2
2017-07-04T14:16:05.210Z,44.3
2017-07-04T14:17:14.166Z,44.59
2017-07-04T14:18:22.822Z,44.1
2017-07-04T14:19:32.105Z,44.3
2017-07-04T14:20:41.081Z,44.2
2017-07-04T14:21:50.046Z,44.1
2017-07-04T14:22:59.319Z,44.2
2017-07-04T14:24:08.923Z,44.2
2017-07-04T14:25:18.205Z,44.2
2017-07-04T14:26:27.475Z,44.2
2017-07-04T14:27:36.444Z,44.3
2017-07-04T14:28:46.353Z,44.3
2017-07-04T14:29:55.324Z,44.2
2017-07-04T14:31:04.960Z,44.3
2017-07-04T14:32:13.605Z,44.2
2017-07-04T14:33:23.213Z,44.3
2017-07-04T14:34:32.499Z,44.3
2017-07-04T14:35:41.786Z,44.3
2017-07-04T14:36:50.745Z,44.3
2017-07-04T14:38:00.337Z,44.3
2017-07-04T14:39:09.312Z,44.3
2017-07-04T14:40:18.268Z,44.3
2017-07-04T14:41:28.173Z,44.3
2017-07-04T14:42:37.158Z,44.3
2017-07-04T14:43:45.796Z,44.3
2017-07-04T14:44:55.705Z,44.3
2017-07-04T14:46:04.664Z,44.1
2017-07-04T14:47:13.309Z,44.2
2017-07-04T14:48:22.898Z,44.1
2017-07-04T14:49:31.866Z,44.2
2017-07-04T14:50:40.826Z,44.2
2017-07-04T14:51:49.785Z,44.4
2017-07-04T14:52:58.431Z,44.1
2017-07-04T14:54:08.020Z,44.59
2017-07-04T14:55:16.995Z,44.59